sensor_id;sensor_type;location;lat;lon;timestamp;P1;durP1;ratioP1;P2;durP2;ratioP2
43996;SDS011;34318;45.818;15.964;2023-04-25T00:00:02;9.77;;;7.25;;
43996;SDS011;34318;45.818;15.964;2023-04-25T00:02:33;8.05;;;7.05;;
43996;SDS011;34318;45.818;15.964;2023-04-25T00:05:01;7.22;;;6.55;;
43996;SDS011;34318;45.818;15.964;2023-04-25T00:07:29;8.48;;;6.82;;
43996;SDS011;34318;45.818;15.964;2023-04-25T00:09:57;9.00;;;7.38;;
43996;SDS011;34318;45.818;15.964;2023-04-25T00:12:25;8.57;;;6.53;;
43996;SDS011;34318;45.818;15.964;2023-04-25T00:14:54;9.63;;;7.63;;
43996;SDS011;34318;45.818;15.964;2023-04-25T00:17:23;9.68;;;7.63;;
43996;SDS011;34318;45.818;15.964;2023-04-25T00:19:50;8.75;;;7.35;;
43996;SDS011;34318;45.818;15.964;2023-04-25T00:22:18;9.13;;;7.15;;
43996;SDS011;34318;45.818;15.964;2023-04-25T00:24:45;9.25;;;7.10;;
43996;SDS011;34318;45.818;15.964;2023-04-25T00:27:13;8.10;;;7.10;;
43996;SDS011;34318;45.818;15.964;2023-04-25T00:29:40;13.85;;;7.15;;
43996;SDS011;34318;45.818;15.964;2023-04-25T00:32:07;7.32;;;6.55;;
43996;SDS011;34318;45.818;15.964;2023-04-25T00:34:34;9.15;;;6.88;;
43996;SDS011;34318;45.818;15.964;2023-04-25T00:37:02;7.53;;;6.82;;
43996;SDS011;34318;45.818;15.964;2023-04-25T00:39:29;10.07;;;7.28;;
43996;SDS011;34318;45.818;15.964;2023-04-25T00:41:56;7.50;;;6.72;;
43996;SDS011;34318;45.818;15.964;2023-04-25T00:44:24;7.07;;;6.38;;
43996;SDS011;34318;45.818;15.964;2023-04-25T00:46:54;7.05;;;6.32;;
43996;SDS011;34318;45.818;15.964;2023-04-25T00:49:21;9.10;;;7.10;;
43996;SDS011;34318;45.818;15.964;2023-04-25T00:51:49;7.13;;;6.43;;
43996;SDS011;34318;45.818;15.964;2023-04-25T00:54:16;8.07;;;6.47;;
43996;SDS011;34318;45.818;15.964;2023-04-25T00:56:43;9.07;;;6.75;;
43996;SDS011;34318;45.818;15.964;2023-04-25T00:59:11;6.68;;;5.97;;
43996;SDS011;34318;45.818;15.964;2023-04-25T01:01:39;8.15;;;6.47;;
43996;SDS011;34318;45.818;15.964;2023-04-25T01:04:06;8.32;;;6.25;;
43996;SDS011;34318;45.818;15.964;2023-04-25T01:06:34;7.20;;;6.13;;
43996;SDS011;34318;45.818;15.964;2023-04-25T01:09:02;7.15;;;5.40;;
43996;SDS011;34318;45.818;15.964;2023-04-25T01:11:30;7.15;;;6.45;;
43996;SDS011;34318;45.818;15.964;2023-04-25T01:13:58;6.90;;;6.13;;
43996;SDS011;34318;45.818;15.964;2023-04-25T01:16:25;7.00;;;6.30;;
43996;SDS011;34318;45.818;15.964;2023-04-25T01:18:52;6.15;;;5.55;;
43996;SDS011;34318;45.818;15.964;2023-04-25T01:21:21;7.00;;;5.78;;
43996;SDS011;34318;45.818;15.964;2023-04-25T01:23:48;6.47;;;5.93;;
43996;SDS011;34318;45.818;15.964;2023-04-25T01:26:16;6.47;;;5.88;;
43996;SDS011;34318;45.818;15.964;2023-04-25T01:28:44;6.72;;;5.68;;
43996;SDS011;34318;45.818;15.964;2023-04-25T01:31:11;7.55;;;5.68;;
43996;SDS011;34318;45.818;15.964;2023-04-25T01:33:39;6.30;;;5.43;;
43996;SDS011;34318;45.818;15.964;2023-04-25T01:36:06;6.55;;;5.85;;
43996;SDS011;34318;45.818;15.964;2023-04-25T01:38:34;7.20;;;6.35;;
43996;SDS011;34318;45.818;15.964;2023-04-25T01:41:01;6.25;;;5.65;;
43996;SDS011;34318;45.818;15.964;2023-04-25T01:43:29;5.70;;;5.20;;
43996;SDS011;34318;45.818;15.964;2023-04-25T01:45:56;6.70;;;5.15;;
43996;SDS011;34318;45.818;15.964;2023-04-25T01:48:23;6.63;;;5.88;;
43996;SDS011;34318;45.818;15.964;2023-04-25T01:50:51;5.97;;;5.35;;
43996;SDS011;34318;45.818;15.964;2023-04-25T01:53:18;6.22;;;5.63;;
43996;SDS011;34318;45.818;15.964;2023-04-25T01:55:45;6.70;;;5.20;;
43996;SDS011;34318;45.818;15.964;2023-04-25T01:58:12;6.80;;;5.65;;
43996;SDS011;34318;45.818;15.964;2023-04-25T02:00:39;5.60;;;5.07;;
43996;SDS011;34318;45.818;15.964;2023-04-25T02:03:07;8.13;;;5.95;;
43996;SDS011;34318;45.818;15.964;2023-04-25T02:05:36;5.57;;;5.07;;
43996;SDS011;34318;45.818;15.964;2023-04-25T02:08:04;6.90;;;5.32;;
43996;SDS011;34318;45.818;15.964;2023-04-25T02:10:33;5.40;;;4.90;;
43996;SDS011;34318;45.818;15.964;2023-04-25T02:13:01;6.40;;;5.00;;
43996;SDS011;34318;45.818;15.964;2023-04-25T02:15:28;5.30;;;4.80;;
43996;SDS011;34318;45.818;15.964;2023-04-25T02:17:56;6.30;;;5.68;;
43996;SDS011;34318;45.818;15.964;2023-04-25T02:20:24;4.90;;;4.50;;
43996;SDS011;34318;45.818;15.964;2023-04-25T02:22:51;8.65;;;5.32;;
43996;SDS011;34318;45.818;15.964;2023-04-25T02:25:19;6.10;;;5.30;;
43996;SDS011;34318;45.818;15.964;2023-04-25T02:27:46;5.88;;;5.28;;
43996;SDS011;34318;45.818;15.964;2023-04-25T02:30:13;6.38;;;5.47;;
43996;SDS011;34318;45.818;15.964;2023-04-25T02:32:41;6.22;;;5.65;;
43996;SDS011;34318;45.818;15.964;2023-04-25T02:35:08;5.65;;;5.13;;
43996;SDS011;34318;45.818;15.964;2023-04-25T02:37:36;5.63;;;5.07;;
43996;SDS011;34318;45.818;15.964;2023-04-25T02:40:04;6.38;;;4.97;;
43996;SDS011;34318;45.818;15.964;2023-04-25T02:42:31;6.15;;;4.88;;
43996;SDS011;34318;45.818;15.964;2023-04-25T02:44:59;5.10;;;4.55;;
43996;SDS011;34318;45.818;15.964;2023-04-25T02:47:26;6.00;;;4.80;;
43996;SDS011;34318;45.818;15.964;2023-04-25T02:49:54;5.65;;;5.00;;
43996;SDS011;34318;45.818;15.964;2023-04-25T02:52:21;4.63;;;4.22;;
43996;SDS011;34318;45.818;15.964;2023-04-25T02:54:48;7.32;;;5.22;;
43996;SDS011;34318;45.818;15.964;2023-04-25T02:57:15;4.97;;;4.47;;
43996;SDS011;34318;45.818;15.964;2023-04-25T02:59:43;5.20;;;4.65;;
43996;SDS011;34318;45.818;15.964;2023-04-25T03:02:10;5.32;;;4.82;;
43996;SDS011;34318;45.818;15.964;2023-04-25T03:04:37;4.90;;;4.40;;
43996;SDS011;34318;45.818;15.964;2023-04-25T03:07:04;5.40;;;4.85;;
43996;SDS011;34318;45.818;15.964;2023-04-25T03:09:32;5.60;;;5.10;;
43996;SDS011;34318;45.818;15.964;2023-04-25T03:11:59;5.88;;;5.15;;
43996;SDS011;34318;45.818;15.964;2023-04-25T03:14:26;5.07;;;3.88;;
43996;SDS011;34318;45.818;15.964;2023-04-25T03:16:53;6.15;;;4.45;;
43996;SDS011;34318;45.818;15.964;2023-04-25T03:19:20;5.40;;;4.78;;
43996;SDS011;34318;45.818;15.964;2023-04-25T03:21:48;5.25;;;4.18;;
43996;SDS011;34318;45.818;15.964;2023-04-25T03:24:15;4.80;;;4.20;;
43996;SDS011;34318;45.818;15.964;2023-04-25T03:26:42;4.97;;;4.20;;
43996;SDS011;34318;45.818;15.964;2023-04-25T03:29:09;6.18;;;5.05;;
43996;SDS011;34318;45.818;15.964;2023-04-25T03:31:36;5.15;;;4.05;;
43996;SDS011;34318;45.818;15.964;2023-04-25T03:34:04;4.80;;;4.38;;
43996;SDS011;34318;45.818;15.964;2023-04-25T03:36:31;4.40;;;4.00;;
43996;SDS011;34318;45.818;15.964;2023-04-25T03:38:58;4.82;;;4.32;;
43996;SDS011;34318;45.818;15.964;2023-04-25T03:41:26;5.32;;;4.47;;
43996;SDS011;34318;45.818;15.964;2023-04-25T03:43:53;4.47;;;4.07;;
43996;SDS011;34318;45.818;15.964;2023-04-25T03:46:21;6.22;;;4.10;;
43996;SDS011;34318;45.818;15.964;2023-04-25T03:48:48;5.50;;;4.10;;
43996;SDS011;34318;45.818;15.964;2023-04-25T03:51:15;5.10;;;4.03;;
43996;SDS011;34318;45.818;15.964;2023-04-25T03:53:42;6.70;;;4.70;;
43996;SDS011;34318;45.818;15.964;2023-04-25T03:56:10;4.05;;;3.53;;
43996;SDS011;34318;45.818;15.964;2023-04-25T03:58:37;3.95;;;3.55;;
43996;SDS011;34318;45.818;15.964;2023-04-25T04:01:04;6.07;;;3.85;;
43996;SDS011;34318;45.818;15.964;2023-04-25T04:03:34;4.35;;;3.95;;
43996;SDS011;34318;45.818;15.964;2023-04-25T04:06:05;4.47;;;3.95;;
43996;SDS011;34318;45.818;15.964;2023-04-25T04:08:33;5.72;;;3.90;;
43996;SDS011;34318;45.818;15.964;2023-04-25T04:11:00;4.03;;;3.60;;
43996;SDS011;34318;45.818;15.964;2023-04-25T04:13:27;4.20;;;3.80;;
43996;SDS011;34318;45.818;15.964;2023-04-25T04:15:55;4.78;;;3.80;;
43996;SDS011;34318;45.818;15.964;2023-04-25T04:18:23;4.15;;;3.70;;
43996;SDS011;34318;45.818;15.964;2023-04-25T04:20:50;5.03;;;4.13;;
43996;SDS011;34318;45.818;15.964;2023-04-25T04:23:18;4.97;;;3.83;;
43996;SDS011;34318;45.818;15.964;2023-04-25T04:25:46;5.35;;;3.88;;
43996;SDS011;34318;45.818;15.964;2023-04-25T04:28:14;5.28;;;3.72;;
43996;SDS011;34318;45.818;15.964;2023-04-25T04:30:42;4.03;;;3.72;;
43996;SDS011;34318;45.818;15.964;2023-04-25T04:33:13;4.03;;;3.60;;
43996;SDS011;34318;45.818;15.964;2023-04-25T04:35:45;4.15;;;3.80;;
43996;SDS011;34318;45.818;15.964;2023-04-25T04:38:14;4.18;;;3.78;;
43996;SDS011;34318;45.818;15.964;2023-04-25T04:40:41;4.00;;;3.35;;
43996;SDS011;34318;45.818;15.964;2023-04-25T04:43:12;4.00;;;3.70;;
43996;SDS011;34318;45.818;15.964;2023-04-25T04:45:40;6.03;;;3.90;;
43996;SDS011;34318;45.818;15.964;2023-04-25T04:48:07;8.77;;;4.13;;
43996;SDS011;34318;45.818;15.964;2023-04-25T04:50:34;9.82;;;4.10;;
43996;SDS011;34318;45.818;15.964;2023-04-25T04:53:02;7.93;;;4.50;;
43996;SDS011;34318;45.818;15.964;2023-04-25T04:55:29;7.85;;;3.78;;
43996;SDS011;34318;45.818;15.964;2023-04-25T04:57:56;7.18;;;4.10;;
43996;SDS011;34318;45.818;15.964;2023-04-25T05:00:23;5.85;;;3.72;;
43996;SDS011;34318;45.818;15.964;2023-04-25T05:02:53;12.65;;;4.18;;
43996;SDS011;34318;45.818;15.964;2023-04-25T05:05:21;6.07;;;4.57;;
43996;SDS011;34318;45.818;15.964;2023-04-25T05:07:48;4.50;;;3.50;;
43996;SDS011;34318;45.818;15.964;2023-04-25T05:10:16;7.78;;;4.18;;
43996;SDS011;34318;45.818;15.964;2023-04-25T05:12:43;5.18;;;3.53;;
43996;SDS011;34318;45.818;15.964;2023-04-25T05:15:11;5.53;;;3.25;;
43996;SDS011;34318;45.818;15.964;2023-04-25T05:17:38;8.05;;;3.83;;
43996;SDS011;34318;45.818;15.964;2023-04-25T05:20:06;6.78;;;4.05;;
43996;SDS011;34318;45.818;15.964;2023-04-25T05:22:35;4.68;;;3.65;;
43996;SDS011;34318;45.818;15.964;2023-04-25T05:25:02;10.60;;;4.03;;
43996;SDS011;34318;45.818;15.964;2023-04-25T05:27:30;6.80;;;4.03;;
43996;SDS011;34318;45.818;15.964;2023-04-25T05:29:57;8.13;;;4.57;;
43996;SDS011;34318;45.818;15.964;2023-04-25T05:32:24;7.68;;;4.10;;
43996;SDS011;34318;45.818;15.964;2023-04-25T05:34:51;8.10;;;4.15;;
43996;SDS011;34318;45.818;15.964;2023-04-25T05:37:19;9.88;;;4.30;;
43996;SDS011;34318;45.818;15.964;2023-04-25T05:39:46;6.65;;;3.50;;
43996;SDS011;34318;45.818;15.964;2023-04-25T05:42:13;11.35;;;5.25;;
43996;SDS011;34318;45.818;15.964;2023-04-25T05:44:41;7.18;;;4.30;;
43996;SDS011;34318;45.818;15.964;2023-04-25T05:47:08;5.22;;;4.43;;
43996;SDS011;34318;45.818;15.964;2023-04-25T05:49:35;12.15;;;4.53;;
43996;SDS011;34318;45.818;15.964;2023-04-25T05:52:02;8.43;;;4.30;;
43996;SDS011;34318;45.818;15.964;2023-04-25T05:54:29;5.88;;;4.13;;
43996;SDS011;34318;45.818;15.964;2023-04-25T05:56:56;4.88;;;3.80;;
43996;SDS011;34318;45.818;15.964;2023-04-25T05:59:24;6.43;;;4.05;;
43996;SDS011;34318;45.818;15.964;2023-04-25T06:01:51;6.88;;;4.32;;
43996;SDS011;34318;45.818;15.964;2023-04-25T06:04:18;7.63;;;3.95;;
43996;SDS011;34318;45.818;15.964;2023-04-25T06:06:46;5.25;;;4.05;;
43996;SDS011;34318;45.818;15.964;2023-04-25T06:09:14;6.32;;;3.88;;
43996;SDS011;34318;45.818;15.964;2023-04-25T06:11:41;4.70;;;3.78;;
43996;SDS011;34318;45.818;15.964;2023-04-25T06:14:08;3.88;;;3.58;;
43996;SDS011;34318;45.818;15.964;2023-04-25T06:16:36;5.90;;;3.80;;
43996;SDS011;34318;45.818;15.964;2023-04-25T06:19:03;8.52;;;4.30;;
43996;SDS011;34318;45.818;15.964;2023-04-25T06:21:30;6.45;;;3.80;;
43996;SDS011;34318;45.818;15.964;2023-04-25T06:23:57;4.78;;;3.75;;
43996;SDS011;34318;45.818;15.964;2023-04-25T06:26:25;6.88;;;4.30;;
43996;SDS011;34318;45.818;15.964;2023-04-25T06:28:52;4.75;;;4.10;;
43996;SDS011;34318;45.818;15.964;2023-04-25T06:31:19;5.30;;;3.60;;
43996;SDS011;34318;45.818;15.964;2023-04-25T06:33:46;7.93;;;4.25;;
43996;SDS011;34318;45.818;15.964;2023-04-25T06:36:14;4.38;;;3.75;;
43996;SDS011;34318;45.818;15.964;2023-04-25T06:38:41;5.15;;;4.30;;
43996;SDS011;34318;45.818;15.964;2023-04-25T06:41:09;5.00;;;4.13;;
43996;SDS011;34318;45.818;15.964;2023-04-25T06:43:36;5.38;;;4.07;;
43996;SDS011;34318;45.818;15.964;2023-04-25T06:46:03;7.57;;;3.67;;
43996;SDS011;34318;45.818;15.964;2023-04-25T06:48:30;5.43;;;3.97;;
43996;SDS011;34318;45.818;15.964;2023-04-25T06:50:58;13.05;;;4.53;;
43996;SDS011;34318;45.818;15.964;2023-04-25T06:53:25;8.27;;;4.32;;
43996;SDS011;34318;45.818;15.964;2023-04-25T06:55:52;6.78;;;3.95;;
43996;SDS011;34318;45.818;15.964;2023-04-25T06:58:19;4.70;;;4.05;;
43996;SDS011;34318;45.818;15.964;2023-04-25T07:00:46;7.57;;;3.95;;
43996;SDS011;34318;45.818;15.964;2023-04-25T07:03:13;8.35;;;4.15;;
43996;SDS011;34318;45.818;15.964;2023-04-25T07:05:41;6.70;;;4.32;;
43996;SDS011;34318;45.818;15.964;2023-04-25T07:08:08;7.97;;;4.10;;
43996;SDS011;34318;45.818;15.964;2023-04-25T07:10:36;8.60;;;4.22;;
43996;SDS011;34318;45.818;15.964;2023-04-25T07:13:03;6.35;;;3.92;;
43996;SDS011;34318;45.818;15.964;2023-04-25T07:15:30;10.63;;;3.92;;
43996;SDS011;34318;45.818;15.964;2023-04-25T07:17:57;5.05;;;3.60;;
43996;SDS011;34318;45.818;15.964;2023-04-25T07:20:24;5.35;;;3.80;;
43996;SDS011;34318;45.818;15.964;2023-04-25T07:22:53;5.50;;;3.67;;
43996;SDS011;34318;45.818;15.964;2023-04-25T07:25:21;5.97;;;4.20;;
43996;SDS011;34318;45.818;15.964;2023-04-25T07:27:48;5.55;;;3.90;;
43996;SDS011;34318;45.818;15.964;2023-04-25T07:30:15;4.18;;;3.40;;
43996;SDS011;34318;45.818;15.964;2023-04-25T07:32:42;5.40;;;3.85;;
43996;SDS011;34318;45.818;15.964;2023-04-25T07:35:10;6.53;;;4.07;;
43996;SDS011;34318;45.818;15.964;2023-04-25T07:37:37;6.45;;;3.20;;
43996;SDS011;34318;45.818;15.964;2023-04-25T07:40:04;3.95;;;3.53;;
43996;SDS011;34318;45.818;15.964;2023-04-25T07:42:32;6.03;;;3.95;;
43996;SDS011;34318;45.818;15.964;2023-04-25T07:44:59;4.85;;;3.72;;
43996;SDS011;34318;45.818;15.964;2023-04-25T07:47:27;5.97;;;4.28;;
43996;SDS011;34318;45.818;15.964;2023-04-25T07:49:54;6.00;;;3.67;;
43996;SDS011;34318;45.818;15.964;2023-04-25T07:52:22;6.32;;;3.65;;
43996;SDS011;34318;45.818;15.964;2023-04-25T07:54:49;4.63;;;3.63;;
43996;SDS011;34318;45.818;15.964;2023-04-25T07:57:17;4.85;;;3.70;;
43996;SDS011;34318;45.818;15.964;2023-04-25T07:59:44;6.45;;;4.15;;
43996;SDS011;34318;45.818;15.964;2023-04-25T08:02:11;6.85;;;3.95;;
43996;SDS011;34318;45.818;15.964;2023-04-25T08:04:39;4.40;;;3.53;;
43996;SDS011;34318;45.818;15.964;2023-04-25T08:07:06;5.90;;;3.30;;
43996;SDS011;34318;45.818;15.964;2023-04-25T08:09:34;6.05;;;3.85;;
43996;SDS011;34318;45.818;15.964;2023-04-25T08:12:02;4.50;;;3.10;;
43996;SDS011;34318;45.818;15.964;2023-04-25T08:14:30;5.82;;;3.50;;
43996;SDS011;34318;45.818;15.964;2023-04-25T08:17:02;6.45;;;3.40;;
43996;SDS011;34318;45.818;15.964;2023-04-25T08:19:29;6.57;;;3.45;;
43996;SDS011;34318;45.818;15.964;2023-04-25T08:21:57;3.83;;;3.20;;
43996;SDS011;34318;45.818;15.964;2023-04-25T08:24:24;4.75;;;3.13;;
43996;SDS011;34318;45.818;15.964;2023-04-25T08:26:51;6.55;;;3.20;;
43996;SDS011;34318;45.818;15.964;2023-04-25T08:29:20;7.68;;;3.60;;
43996;SDS011;34318;45.818;15.964;2023-04-25T08:31:49;9.70;;;3.50;;
43996;SDS011;34318;45.818;15.964;2023-04-25T08:34:16;3.85;;;3.00;;
43996;SDS011;34318;45.818;15.964;2023-04-25T08:36:44;5.07;;;3.40;;
43996;SDS011;34318;45.818;15.964;2023-04-25T08:39:11;4.03;;;3.58;;
43996;SDS011;34318;45.818;15.964;2023-04-25T08:41:40;4.82;;;3.63;;
43996;SDS011;34318;45.818;15.964;2023-04-25T08:44:09;3.97;;;3.35;;
43996;SDS011;34318;45.818;15.964;2023-04-25T08:46:40;6.90;;;3.30;;
43996;SDS011;34318;45.818;15.964;2023-04-25T08:49:08;3.40;;;3.10;;
43996;SDS011;34318;45.818;15.964;2023-04-25T08:51:36;4.05;;;3.28;;
43996;SDS011;34318;45.818;15.964;2023-04-25T08:54:10;6.25;;;3.45;;
43996;SDS011;34318;45.818;15.964;2023-04-25T08:56:58;4.00;;;2.72;;
43996;SDS011;34318;45.818;15.964;2023-04-25T08:59:31;4.90;;;2.97;;
43996;SDS011;34318;45.818;15.964;2023-04-25T09:01:59;4.53;;;3.00;;
43996;SDS011;34318;45.818;15.964;2023-04-25T09:04:27;4.82;;;2.60;;
43996;SDS011;34318;45.818;15.964;2023-04-25T09:06:56;3.10;;;2.50;;
43996;SDS011;34318;45.818;15.964;2023-04-25T09:09:24;2.95;;;2.30;;
43996;SDS011;34318;45.818;15.964;2023-04-25T09:11:52;3.13;;;2.50;;
43996;SDS011;34318;45.818;15.964;2023-04-25T09:14:22;3.45;;;2.63;;
43996;SDS011;34318;45.818;15.964;2023-04-25T09:19:32;2.20;;;2.00;;
43996;SDS011;34318;45.818;15.964;2023-04-25T09:22:05;2.92;;;2.67;;
43996;SDS011;34318;45.818;15.964;2023-04-25T09:27:04;2.55;;;2.35;;
43996;SDS011;34318;45.818;15.964;2023-04-25T09:29:32;3.85;;;2.67;;
43996;SDS011;34318;45.818;15.964;2023-04-25T09:32:20;2.45;;;2.20;;
43996;SDS011;34318;45.818;15.964;2023-04-25T09:34:51;2.40;;;2.20;;
43996;SDS011;34318;45.818;15.964;2023-04-25T09:39:47;2.65;;;2.35;;
43996;SDS011;34318;45.818;15.964;2023-04-25T09:42:15;2.85;;;2.08;;
43996;SDS011;34318;45.818;15.964;2023-04-25T09:44:46;3.75;;;2.30;;
43996;SDS011;34318;45.818;15.964;2023-04-25T09:47:14;2.40;;;2.10;;
43996;SDS011;34318;45.818;15.964;2023-04-25T09:49:43;2.72;;;2.10;;
43996;SDS011;34318;45.818;15.964;2023-04-25T09:52:44;3.25;;;2.38;;
43996;SDS011;34318;45.818;15.964;2023-04-25T09:55:04;18.90;;;9.98;;
43996;SDS011;34318;45.818;15.964;2023-04-25T09:57:32;103.32;;;63.85;;
43996;SDS011;34318;45.818;15.964;2023-04-25T10:00:00;157.10;;;95.32;;
43996;SDS011;34318;45.818;15.964;2023-04-25T10:02:30;187.35;;;111.20;;
43996;SDS011;34318;45.818;15.964;2023-04-25T10:04:58;288.08;;;224.10;;
43996;SDS011;34318;45.818;15.964;2023-04-25T10:07:29;323.88;;;264.98;;
43996;SDS011;34318;45.818;15.964;2023-04-25T10:10:00;343.35;;;288.25;;
43996;SDS011;34318;45.818;15.964;2023-04-25T10:12:29;250.82;;;222.07;;
43996;SDS011;34318;45.818;15.964;2023-04-25T10:15:00;240.05;;;208.45;;
43996;SDS011;34318;45.818;15.964;2023-04-25T10:17:27;215.55;;;185.73;;
43996;SDS011;34318;45.818;15.964;2023-04-25T10:19:55;184.90;;;154.88;;
43996;SDS011;34318;45.818;15.964;2023-04-25T10:22:24;149.82;;;132.85;;
43996;SDS011;34318;45.818;15.964;2023-04-25T10:24:53;164.20;;;139.63;;
43996;SDS011;34318;45.818;15.964;2023-04-25T10:27:20;127.05;;;112.78;;
43996;SDS011;34318;45.818;15.964;2023-04-25T10:29:59;113.13;;;100.68;;
43996;SDS011;34318;45.818;15.964;2023-04-25T10:32:28;101.03;;;86.03;;
43996;SDS011;34318;45.818;15.964;2023-04-25T10:34:57;76.93;;;68.38;;
43996;SDS011;34318;45.818;15.964;2023-04-25T10:37:25;44.80;;;39.65;;
43996;SDS011;34318;45.818;15.964;2023-04-25T10:39:52;28.20;;;25.17;;
43996;SDS011;34318;45.818;15.964;2023-04-25T10:42:20;23.88;;;18.50;;
43996;SDS011;34318;45.818;15.964;2023-04-25T10:45:00;19.50;;;15.98;;
43996;SDS011;34318;45.818;15.964;2023-04-25T10:47:35;25.30;;;20.15;;
43996;SDS011;34318;45.818;15.964;2023-04-25T10:50:07;23.23;;;18.33;;
43996;SDS011;34318;45.818;15.964;2023-04-25T10:52:35;13.85;;;12.50;;
43996;SDS011;34318;45.818;15.964;2023-04-25T10:55:06;13.18;;;9.82;;
43996;SDS011;34318;45.818;15.964;2023-04-25T10:57:43;8.75;;;7.47;;
43996;SDS011;34318;45.818;15.964;2023-04-25T11:02:42;5.18;;;3.78;;
43996;SDS011;34318;45.818;15.964;2023-04-25T11:05:10;3.45;;;3.05;;
43996;SDS011;34318;45.818;15.964;2023-04-25T11:07:49;6.47;;;2.73;;
43996;SDS011;34318;45.818;15.964;2023-04-25T11:10:32;4.32;;;3.10;;
43996;SDS011;34318;45.818;15.964;2023-04-25T11:13:03;5.68;;;3.05;;
43996;SDS011;34318;45.818;15.964;2023-04-25T11:15:31;3.58;;;3.13;;
43996;SDS011;34318;45.818;15.964;2023-04-25T11:17:58;5.00;;;3.47;;
43996;SDS011;34318;45.818;15.964;2023-04-25T11:20:26;3.97;;;2.80;;
43996;SDS011;34318;45.818;15.964;2023-04-25T11:22:57;3.30;;;2.38;;
43996;SDS011;34318;45.818;15.964;2023-04-25T11:25:26;4.07;;;2.58;;
43996;SDS011;34318;45.818;15.964;2023-04-25T11:27:53;4.50;;;2.50;;
43996;SDS011;34318;45.818;15.964;2023-04-25T11:30:22;3.17;;;2.70;;
43996;SDS011;34318;45.818;15.964;2023-04-25T11:32:49;7.55;;;6.85;;
43996;SDS011;34318;45.818;15.964;2023-04-25T11:35:19;8.38;;;7.45;;
43996;SDS011;34318;45.818;15.964;2023-04-25T11:37:47;10.15;;;9.15;;
43996;SDS011;34318;45.818;15.964;2023-04-25T11:40:14;13.52;;;12.32;;
43996;SDS011;34318;45.818;15.964;2023-04-25T11:42:45;14.50;;;13.10;;
43996;SDS011;34318;45.818;15.964;2023-04-25T11:45:13;14.07;;;12.70;;
43996;SDS011;34318;45.818;15.964;2023-04-25T11:47:41;11.38;;;10.15;;
43996;SDS011;34318;45.818;15.964;2023-04-25T11:50:08;9.75;;;7.65;;
43996;SDS011;34318;45.818;15.964;2023-04-25T11:52:39;9.70;;;6.28;;
43996;SDS011;34318;45.818;15.964;2023-04-25T11:55:07;8.77;;;6.57;;
43996;SDS011;34318;45.818;15.964;2023-04-25T11:57:39;8.05;;;5.85;;
43996;SDS011;34318;45.818;15.964;2023-04-25T12:00:14;8.13;;;6.00;;
43996;SDS011;34318;45.818;15.964;2023-04-25T12:02:46;7.97;;;5.88;;
43996;SDS011;34318;45.818;15.964;2023-04-25T12:05:14;12.73;;;5.75;;
43996;SDS011;34318;45.818;15.964;2023-04-25T12:07:58;11.40;;;5.53;;
43996;SDS011;34318;45.818;15.964;2023-04-25T12:10:25;8.48;;;5.45;;
43996;SDS011;34318;45.818;15.964;2023-04-25T12:12:55;6.88;;;4.57;;
43996;SDS011;34318;45.818;15.964;2023-04-25T12:15:23;9.45;;;5.28;;
43996;SDS011;34318;45.818;15.964;2023-04-25T12:17:51;6.85;;;4.50;;
43996;SDS011;34318;45.818;15.964;2023-04-25T12:20:20;5.28;;;4.00;;
43996;SDS011;34318;45.818;15.964;2023-04-25T12:22:50;8.13;;;6.90;;
43996;SDS011;34318;45.818;15.964;2023-04-25T12:25:36;9.70;;;8.70;;
43996;SDS011;34318;45.818;15.964;2023-04-25T12:28:20;11.05;;;9.68;;
43996;SDS011;34318;45.818;15.964;2023-04-25T12:30:57;9.52;;;7.35;;
43996;SDS011;34318;45.818;15.964;2023-04-25T12:33:28;7.72;;;6.60;;
43996;SDS011;34318;45.818;15.964;2023-04-25T12:35:56;8.60;;;6.15;;
43996;SDS011;34318;45.818;15.964;2023-04-25T12:38:24;8.55;;;6.63;;
43996;SDS011;34318;45.818;15.964;2023-04-25T12:40:52;5.45;;;4.95;;
43996;SDS011;34318;45.818;15.964;2023-04-25T12:43:19;6.68;;;4.80;;
43996;SDS011;34318;45.818;15.964;2023-04-25T12:45:51;4.38;;;3.95;;
43996;SDS011;34318;45.818;15.964;2023-04-25T12:48:18;5.47;;;4.20;;
43996;SDS011;34318;45.818;15.964;2023-04-25T12:50:46;5.38;;;3.50;;
43996;SDS011;34318;45.818;15.964;2023-04-25T12:53:15;3.95;;;3.35;;
43996;SDS011;34318;45.818;15.964;2023-04-25T12:55:42;3.70;;;3.00;;
43996;SDS011;34318;45.818;15.964;2023-04-25T12:58:12;3.65;;;2.85;;
43996;SDS011;34318;45.818;15.964;2023-04-25T13:00:39;6.38;;;2.95;;
43996;SDS011;34318;45.818;15.964;2023-04-25T13:03:07;5.57;;;2.78;;
43996;SDS011;34318;45.818;15.964;2023-04-25T13:05:35;3.95;;;2.70;;
43996;SDS011;34318;45.818;15.964;2023-04-25T13:08:03;3.97;;;3.00;;
43996;SDS011;34318;45.818;15.964;2023-04-25T13:10:30;3.92;;;2.80;;
43996;SDS011;34318;45.818;15.964;2023-04-25T13:12:59;3.67;;;2.70;;
43996;SDS011;34318;45.818;15.964;2023-04-25T13:15:27;6.45;;;2.92;;
43996;SDS011;34318;45.818;15.964;2023-04-25T13:17:55;5.25;;;3.35;;
43996;SDS011;34318;45.818;15.964;2023-04-25T13:20:22;5.82;;;5.07;;
43996;SDS011;34318;45.818;15.964;2023-04-25T13:22:49;11.65;;;10.55;;
43996;SDS011;34318;45.818;15.964;2023-04-25T13:25:16;9.95;;;8.98;;
43996;SDS011;34318;45.818;15.964;2023-04-25T13:27:44;11.48;;;10.38;;
43996;SDS011;34318;45.818;15.964;2023-04-25T13:30:12;11.07;;;10.07;;
43996;SDS011;34318;45.818;15.964;2023-04-25T13:32:40;12.57;;;11.48;;
43996;SDS011;34318;45.818;15.964;2023-04-25T13:35:08;10.45;;;9.55;;
43996;SDS011;34318;45.818;15.964;2023-04-25T13:37:36;11.02;;;10.02;;
43996;SDS011;34318;45.818;15.964;2023-04-25T13:40:05;9.85;;;8.85;;
43996;SDS011;34318;45.818;15.964;2023-04-25T13:42:34;9.88;;;7.88;;
43996;SDS011;34318;45.818;15.964;2023-04-25T13:45:01;8.15;;;7.22;;
43996;SDS011;34318;45.818;15.964;2023-04-25T13:47:29;9.02;;;6.72;;
43996;SDS011;34318;45.818;15.964;2023-04-25T13:49:57;5.75;;;5.25;;
43996;SDS011;34318;45.818;15.964;2023-04-25T13:52:24;9.70;;;5.93;;
43996;SDS011;34318;45.818;15.964;2023-04-25T13:54:51;5.28;;;4.78;;
43996;SDS011;34318;45.818;15.964;2023-04-25T13:57:19;4.57;;;4.15;;
43996;SDS011;34318;45.818;15.964;2023-04-25T13:59:46;4.85;;;4.18;;
43996;SDS011;34318;45.818;15.964;2023-04-25T14:02:13;4.82;;;3.75;;
43996;SDS011;34318;45.818;15.964;2023-04-25T14:04:40;5.93;;;4.13;;
43996;SDS011;34318;45.818;15.964;2023-04-25T14:07:08;4.70;;;3.97;;
43996;SDS011;34318;45.818;15.964;2023-04-25T14:09:36;4.50;;;3.90;;
43996;SDS011;34318;45.818;15.964;2023-04-25T14:12:04;4.75;;;3.97;;
43996;SDS011;34318;45.818;15.964;2023-04-25T14:14:32;5.05;;;4.00;;
43996;SDS011;34318;45.818;15.964;2023-04-25T14:16:59;4.60;;;3.92;;
43996;SDS011;34318;45.818;15.964;2023-04-25T14:19:26;6.78;;;4.65;;
43996;SDS011;34318;45.818;15.964;2023-04-25T14:21:55;6.22;;;4.55;;
43996;SDS011;34318;45.818;15.964;2023-04-25T14:24:22;8.98;;;5.15;;
43996;SDS011;34318;45.818;15.964;2023-04-25T14:26:49;8.35;;;5.80;;
43996;SDS011;34318;45.818;15.964;2023-04-25T14:29:16;10.10;;;5.93;;
43996;SDS011;34318;45.818;15.964;2023-04-25T14:31:43;10.45;;;6.03;;
43996;SDS011;34318;45.818;15.964;2023-04-25T14:34:11;11.02;;;5.95;;
43996;SDS011;34318;45.818;15.964;2023-04-25T14:36:38;7.65;;;5.13;;
43996;SDS011;34318;45.818;15.964;2023-04-25T14:39:06;9.52;;;5.85;;
43996;SDS011;34318;45.818;15.964;2023-04-25T14:41:33;10.02;;;5.15;;
43996;SDS011;34318;45.818;15.964;2023-04-25T14:44:00;9.27;;;5.80;;
43996;SDS011;34318;45.818;15.964;2023-04-25T14:46:27;9.88;;;6.72;;